Time;durP1;ratioP1;P1;durP2;ratioP2;P2;SDS_P1;SDS_P2;PMS_P1;PMS_P2;Temp;Humidity;BMP_temperature;BMP_pressure;BME280_temperature;BME280_humidity;BME280_pressure;Samples;Min_cycle;Max_cycle;Signal;HPM_P1;HPM_P2
2021/10/14 00:00:51;;;;;;;3.30;3.00;;;9.30;40.30;;;;;;10385980;28;20222;-74
2021/10/14 00:05:56;;;;;;;3.37;3.07;;;9.30;40.30;;;;;;10379390;28;20230;-72
2021/10/14 00:10:59;;;;;;;3.60;3.30;;;9.20;40.20;;;;;;10382906;28;20232;-72
2021/10/14 00:16:02;;;;;;;3.80;3.50;;;9.20;40.20;;;;;;10442635;23;20577;-73
2021/10/14 00:21:07;;;;;;;3.80;3.50;;;9.20;40.20;;;;;;10402067;28;20237;-73
2021/10/14 00:26:10;;;;;;;4.27;3.60;;;9.20;40.20;;;;;;10402577;28;20229;-72
2021/10/14 00:31:13;;;;;;;3.87;3.57;;;9.10;40.10;;;;;;10396599;28;20296;-72
2021/10/14 00:36:18;;;;;;;3.63;3.33;;;9.00;40.10;;;;;;10401337;28;20732;-72
2021/10/14 00:41:21;;;;;;;3.93;3.63;;;9.00;40.20;;;;;;10394289;28;23966;-72
2021/10/14 00:46:24;;;;;;;4.00;3.70;;;8.90;40.00;;;;;;10398603;28;20226;-72
2021/10/14 00:51:29;;;;;;;3.77;3.37;;;8.90;40.20;;;;;;10399641;28;20225;-72
2021/10/14 00:56:32;;;;;;;3.80;3.50;;;8.80;40.60;;;;;;10396515;28;20698;-72
2021/10/14 01:01:36;;;;;;;3.63;3.37;;;8.80;40.50;;;;;;10400558;28;20249;-72
2021/10/14 01:06:41;;;;;;;3.60;3.30;;;8.80;40.60;;;;;;10397245;28;20320;-72
2021/10/14 01:11:44;;;;;;;3.70;3.40;;;8.80;40.90;;;;;;10400038;28;20226;-72
2021/10/14 01:16:48;;;;;;;4.17;3.30;;;8.90;40.80;;;;;;10398784;28;20238;-73
2021/10/14 01:21:53;;;;;;;3.63;3.33;;;8.90;40.90;;;;;;10395370;28;20218;-72
2021/10/14 01:26:56;;;;;;;3.80;3.40;;;8.90;40.90;;;;;;10398573;28;20244;-72
2021/10/14 01:32:01;;;;;;;3.77;3.47;;;8.80;40.60;;;;;;10399909;28;20226;-73
2021/10/14 01:37:06;;;;;;;3.77;3.37;;;8.80;40.70;;;;;;10397478;28;20226;-73
2021/10/14 01:42:09;;;;;;;4.13;3.70;;;8.80;41.10;;;;;;10397213;28;20225;-73
2021/10/14 01:47:12;;;;;;;4.23;3.83;;;8.80;41.00;;;;;;10392715;28;20229;-73
2021/10/14 01:52:17;;;;;;;4.70;4.20;;;8.70;41.00;;;;;;10397796;28;20252;-73
2021/10/14 01:57:20;;;;;;;4.63;3.70;;;8.80;41.30;;;;;;10394088;28;20225;-73
2021/10/14 02:02:24;;;;;;;4.00;3.60;;;8.70;41.20;;;;;;10398811;28;20225;-73
2021/10/14 02:07:28;;;;;;;5.50;4.23;;;8.70;41.20;;;;;;10394508;28;20628;-73
2021/10/14 02:12:32;;;;;;;3.83;3.53;;;8.70;41.60;;;;;;10397394;28;20383;-73
2021/10/14 02:17:35;;;;;;;4.20;3.80;;;8.70;41.20;;;;;;10396100;28;20234;-73
2021/10/14 02:22:40;;;;;;;4.73;4.33;;;8.70;41.30;;;;;;10389950;28;20524;-73
2021/10/14 02:27:43;;;;;;;4.37;3.97;;;8.60;41.60;;;;;;10395341;28;20225;-73
2021/10/14 02:32:46;;;;;;;4.40;4.10;;;8.60;42.30;;;;;;10393455;28;20229;-73
2021/10/14 02:37:51;;;;;;;4.60;4.10;;;8.60;41.60;;;;;;10396775;28;20275;-73
2021/10/14 02:42:54;;;;;;;4.03;3.70;;;8.60;41.80;;;;;;10391778;28;20662;-73
2021/10/14 02:47:57;;;;;;;4.70;4.30;;;8.60;41.60;;;;;;10394707;28;20233;-73
2021/10/14 02:53:02;;;;;;;5.20;4.43;;;8.60;41.70;;;;;;10395110;28;20221;-73
2021/10/14 02:58:05;;;;;;;5.90;4.20;;;8.60;42.10;;;;;;10392822;28;20222;-73
2021/10/14 03:03:08;;;;;;;4.77;4.37;;;8.70;41.90;;;;;;10397082;28;20222;-73
2021/10/14 03:08:14;;;;;;;4.80;4.30;;;8.70;41.80;;;;;;10396315;28;20232;-73
2021/10/14 03:13:17;;;;;;;4.87;4.47;;;8.70;42.10;;;;;;10396675;28;20253;-72
2021/10/14 03:18:20;;;;;;;5.63;4.60;;;8.70;42.00;;;;;;10393713;28;20336;-73
2021/10/14 03:23:25;;;;;;;4.90;4.50;;;8.80;42.00;;;;;;10393248;28;20225;-73
2021/10/14 03:28:28;;;;;;;5.27;4.77;;;8.80;42.20;;;;;;10396235;28;20233;-73
2021/10/14 03:33:33;;;;;;;5.60;5.10;;;8.80;41.90;;;;;;10399211;28;20225;-73
2021/10/14 03:38:38;;;;;;;5.40;4.90;;;8.80;41.80;;;;;;10400384;28;20277;-73
2021/10/14 03:43:41;;;;;;;5.43;5.03;;;8.80;42.10;;;;;;10398634;28;20229;-73
2021/10/14 03:48:45;;;;;;;5.90;5.40;;;8.70;41.90;;;;;;10399594;28;20218;-73
2021/10/14 03:53:49;;;;;;;5.97;5.33;;;8.60;42.10;;;;;;10398860;28;20690;-73
2021/10/14 03:58:52;;;;;;;5.93;5.40;;;8.60;42.50;;;;;;10399573;28;20225;-73
2021/10/14 04:03:56;;;;;;;6.37;5.70;;;8.60;42.40;;;;;;10399572;28;20628;-73
2021/10/14 04:09:00;;;;;;;6.17;5.67;;;8.60;42.60;;;;;;10402877;28;20249;-73
2021/10/14 04:14:04;;;;;;;6.93;6.30;;;8.60;42.70;;;;;;10397760;28;20222;-73
2021/10/14 04:19:07;;;;;;;6.20;5.60;;;8.60;42.50;;;;;;10398364;28;20238;-72
2021/10/14 04:24:12;;;;;;;6.37;5.77;;;8.60;43.30;;;;;;10397946;28;20679;-73
2021/10/14 04:29:15;;;;;;;7.27;6.57;;;8.60;42.90;;;;;;10399099;28;20233;-73
2021/10/14 04:34:19;;;;;;;6.43;5.83;;;8.70;42.80;;;;;;10398758;28;20574;-73
2021/10/14 04:39:24;;;;;;;6.80;6.10;;;8.60;43.00;;;;;;10400953;28;20236;-73
2021/10/14 04:44:28;;;;;;;7.57;6.87;;;8.70;43.20;;;;;;10398223;28;20556;-73
2021/10/14 04:49:32;;;;;;;8.60;6.83;;;8.80;43.00;;;;;;10397005;28;20221;-73
2021/10/14 04:54:36;;;;;;;7.87;7.10;;;8.80;43.00;;;;;;10394737;28;20240;-73
2021/10/14 04:59:39;;;;;;;8.37;7.53;;;8.90;43.10;;;;;;10398440;28;20218;-73
2021/10/14 05:04:43;;;;;;;7.77;7.07;;;8.90;42.80;;;;;;10396982;28;20625;-73
2021/10/14 05:09:47;;;;;;;8.20;6.10;;;8.90;42.70;;;;;;10400484;28;20228;-73
2021/10/14 05:14:51;;;;;;;7.43;6.80;;;8.90;43.80;;;;;;10392066;28;20226;-73
2021/10/14 05:19:54;;;;;;;7.63;6.87;;;8.90;43.40;;;;;;10394987;28;20254;-73
2021/10/14 05:24:58;;;;;;;7.17;6.47;;;8.90;43.20;;;;;;10397511;28;20714;-73
2021/10/14 05:30:01;;;;;;;9.70;7.10;;;9.00;43.40;;;;;;10397741;28;20225;-73
2021/10/14 05:35:05;;;;;;;7.70;6.97;;;9.00;43.10;;;;;;10398375;28;20293;-73
2021/10/14 05:40:11;;;;;;;8.30;7.20;;;9.00;43.00;;;;;;10397437;28;20233;-73
2021/10/14 05:45:14;;;;;;;8.30;7.47;;;9.10;43.30;;;;;;10397746;28;20698;-73
2021/10/14 05:50:17;;;;;;;9.17;8.13;;;9.10;43.00;;;;;;10393225;28;20228;-73
2021/10/14 05:55:22;;;;;;;9.37;8.37;;;9.10;43.10;;;;;;10394748;28;20229;-73
2021/10/14 06:00:25;;;;;;;9.20;7.57;;;9.10;43.30;;;;;;10397584;28;20233;-73
2021/10/14 06:05:28;;;;;;;8.03;7.27;;;9.10;43.10;;;;;;10395403;28;20229;-73
2021/10/14 06:10:32;;;;;;;10.83;7.67;;;9.10;43.20;;;;;;10396499;28;20237;-73
2021/10/14 06:15:36;;;;;;;11.27;8.70;;;9.20;43.50;;;;;;10394288;28;20233;-73
2021/10/14 06:20:39;;;;;;;8.70;7.80;;;9.20;43.30;;;;;;10396507;28;20242;-73
2021/10/14 06:25:43;;;;;;;9.43;8.40;;;9.20;43.30;;;;;;10395414;28;20229;-73
2021/10/14 06:30:46;;;;;;;8.50;7.60;;;9.30;43.90;;;;;;10393315;28;20241;-73
2021/10/14 06:35:50;;;;;;;9.20;8.30;;;9.30;43.60;;;;;;10390977;28;20256;-78
2021/10/14 06:40:54;;;;;;;9.30;8.43;;;9.30;43.60;;;;;;10390403;28;20234;-77
2021/10/14 06:45:57;;;;;;;11.60;10.50;;;9.40;44.20;;;;;;10393317;28;20241;-78
2021/10/14 06:51:01;;;;;;;10.13;9.13;;;9.40;43.80;;;;;;10396219;28;20225;-79
2021/10/14 06:56:06;;;;;;;11.37;10.27;;;9.60;44.10;;;;;;10396662;28;20221;-78
2021/10/14 07:01:09;;;;;;;12.37;10.87;;;9.60;44.50;;;;;;10400714;28;20812;-78
2021/10/14 07:06:12;;;;;;;10.50;9.50;;;9.70;44.20;;;;;;10394458;28;20233;-78
2021/10/14 07:11:17;;;;;;;9.83;8.93;;;9.70;44.10;;;;;;10400819;28;20222;-73
2021/10/14 07:16:20;;;;;;;10.70;9.10;;;9.80;44.50;;;;;;10397234;28;20765;-73
2021/10/14 07:21:23;;;;;;;9.57;8.60;;;9.80;44.20;;;;;;10397898;28;20588;-73
2021/10/14 07:26:28;;;;;;;10.67;8.93;;;9.90;44.30;;;;;;10400360;28;20229;-73
2021/10/14 07:31:32;;;;;;;9.50;8.60;;;9.90;44.40;;;;;;10401062;28;20231;-73
2021/10/14 07:36:35;;;;;;;12.13;10.30;;;10.00;43.30;;;;;;10399651;28;20232;-73
2021/10/14 07:41:40;;;;;;;12.03;10.57;;;10.10;43.40;;;;;;10397385;28;20237;-73
2021/10/14 07:46:44;;;;;;;11.97;8.97;;;10.10;43.80;;;;;;10397167;28;20233;-73
2021/10/14 07:51:48;;;;;;;9.83;8.37;;;10.20;43.40;;;;;;10392312;28;20316;-73
2021/10/14 07:56:52;;;;;;;11.77;8.80;;;10.20;43.60;;;;;;10402598;28;20740;-73
2021/10/14 08:01:55;;;;;;;9.43;8.27;;;10.30;43.80;;;;;;10401913;28;20229;-73
2021/10/14 08:06:59;;;;;;;10.23;8.93;;;10.40;43.50;;;;;;10400367;28;20217;-73
2021/10/14 08:12:03;;;;;;;10.40;8.90;;;10.40;43.40;;;;;;10401398;28;20244;-74
2021/10/14 08:17:07;;;;;;;8.77;7.97;;;10.50;43.80;;;;;;10398550;28;21221;-73
2021/10/14 08:22:10;;;;;;;8.87;7.97;;;10.60;43.80;;;;;;10401202;28;20743;-72
2021/10/14 08:27:14;;;;;;;8.83;7.73;;;10.70;43.80;;;;;;10398170;28;20237;-73
2021/10/14 08:32:18;;;;;;;9.33;7.87;;;10.80;44.00;;;;;;10390961;28;20222;-73
2021/10/14 08:37:22;;;;;;;9.00;8.00;;;10.90;43.80;;;;;;10393681;28;20340;-73
2021/10/14 08:42:26;;;;;;;8.87;7.47;;;11.00;43.90;;;;;;10389038;28;20309;-73
2021/10/14 08:47:30;;;;;;;8.63;7.40;;;11.10;43.90;;;;;;10395696;28;20581;-73
2021/10/14 08:52:34;;;;;;;8.00;7.20;;;11.30;43.90;;;;;;10397094;28;20217;-73
2021/10/14 08:57:38;;;;;;;7.93;7.13;;;11.40;43.80;;;;;;10396121;28;20225;-73
2021/10/14 09:02:41;;;;;;;8.23;7.43;;;11.50;43.70;;;;;;10395403;28;20229;-73
2021/10/14 09:07:49;;;;;;;7.90;6.93;;;11.50;43.50;;;;;;10392579;28;20741;-73
2021/10/14 09:12:53;;;;;;;8.37;7.43;;;11.60;43.30;;;;;;10397035;28;20221;-80
2021/10/14 09:17:57;;;;;;;8.47;7.40;;;11.70;43.30;;;;;;10389901;28;20231;-80
2021/10/14 09:23:02;;;;;;;8.57;7.77;;;11.70;43.20;;;;;;10391950;28;20769;-80
2021/10/14 09:28:13;;;;;;;10.30;8.40;;;11.80;43.10;;;;;;10397142;28;20246;-79
2021/10/14 09:33:37;;;;;;;8.23;7.30;;;11.90;43.20;;;;;;10400629;28;20232;-80
2021/10/14 09:38:42;;;;;;;8.60;7.50;;;11.90;43.10;;;;;;10391839;28;20229;-80
2021/10/14 09:43:49;;;;;;;9.90;7.40;;;12.00;43.10;;;;;;10393123;28;20226;-80
2021/10/14 09:48:52;;;;;;;8.80;7.17;;;12.10;43.10;;;;;;10396372;28;20319;-73
2021/10/14 09:53:55;;;;;;;8.33;7.03;;;12.20;43.10;;;;;;10392086;28;20229;-73
2021/10/14 09:59:02;;;;;;;7.03;6.30;;;12.30;43.00;;;;;;10398084;28;20244;-74
2021/10/14 10:04:05;;;;;;;6.83;6.17;;;12.40;42.80;;;;;;10389502;28;20426;-75
2021/10/14 10:09:15;;;;;;;7.30;6.30;;;12.50;42.90;;;;;;10390540;28;20231;-75
2021/10/14 10:14:22;;;;;;;6.30;5.70;;;12.50;42.70;;;;;;10386576;28;20732;-75
2021/10/14 10:19:48;;;;;;;8.83;6.00;;;12.60;42.90;;;;;;10387565;28;20237;-75
2021/10/14 10:24:52;;;;;;;7.47;5.90;;;12.70;42.40;;;;;;10396552;28;20244;-75
2021/10/14 10:30:00;;;;;;;6.73;5.90;;;12.80;42.50;;;;;;10396973;28;20241;-75
2021/10/14 10:35:08;;;;;;;8.10;5.73;;;12.90;42.50;;;;;;10393104;28;20609;-79
2021/10/14 10:40:24;;;;;;;6.00;5.40;;;13.00;42.60;;;;;;10385713;28;20230;-79
2021/10/14 10:45:30;;;;;;;7.63;6.20;;;13.10;42.70;;;;;;10388954;28;20832;-79
2021/10/14 10:50:49;;;;;;;6.63;5.37;;;13.20;42.70;;;;;;10389040;28;20237;-74
2021/10/14 10:55:55;;;;;;;6.13;5.53;;;13.40;42.30;;;;;;10386015;28;20233;-73
2021/10/14 11:01:00;;;;;;;8.57;6.17;;;13.50;42.40;;;;;;10366543;28;20279;-72
2021/10/14 11:06:09;;;;;;;6.70;6.00;;;13.60;42.40;;;;;;10371537;28;20226;-79
2021/10/14 11:11:15;;;;;;;5.67;5.10;;;13.80;42.00;;;;;;10374840;28;20232;-79
2021/10/14 11:16:23;;;;;;;5.93;5.43;;;13.80;42.60;;;;;;10375365;28;20226;-80
2021/10/14 11:21:28;;;;;;;7.33;5.27;;;13.90;41.30;;;;;;10374289;28;20229;-72
2021/10/14 11:26:34;;;;;;;6.67;5.43;;;14.00;41.70;;;;;;10388634;28;20262;-72
2021/10/14 11:31:41;;;;;;;5.33;4.83;;;14.00;41.80;;;;;;10387841;28;20230;-73
2021/10/14 11:36:53;;;;;;;5.80;5.20;;;14.10;41.80;;;;;;10392210;28;20236;-73
2021/10/14 11:41:58;;;;;;;5.87;5.20;;;14.20;40.60;;;;;;10428315;28;20256;-73
2021/10/14 11:47:05;;;;;;;6.57;5.30;;;14.30;41.00;;;;;;10426783;28;20509;-79
2021/10/14 11:52:11;;;;;;;5.93;4.77;;;14.30;40.90;;;;;;10433825;28;20226;-73
2021/10/14 11:57:15;;;;;;;6.03;5.10;;;14.30;40.70;;;;;;10434251;28;20690;-73
2021/10/14 12:02:22;;;;;;;5.40;4.87;;;14.30;40.80;;;;;;10437572;28;20607;-72
2021/10/14 12:07:27;;;;;;;5.97;4.70;;;14.30;40.20;;;;;;10433412;28;20228;-73
2021/10/14 12:12:31;;;;;;;7.80;5.50;;;14.30;40.70;;;;;;10440521;28;20253;-73
2021/10/14 12:17:53;;;;;;;6.93;5.17;;;14.30;40.50;;;;;;10432880;28;20237;-73
2021/10/14 12:22:58;;;;;;;5.27;4.77;;;14.40;40.20;;;;;;10437933;28;20233;-73
2021/10/14 12:28:02;;;;;;;5.50;4.90;;;14.30;40.10;;;;;;10439204;28;20224;-76
2021/10/14 12:33:18;;;;;;;6.33;4.10;;;14.30;40.60;;;;;;10439436;28;20217;-75
2021/10/14 12:38:22;;;;;;;6.10;3.93;;;14.30;40.10;;;;;;10438950;28;20224;-75
2021/10/14 12:43:29;;;;;;;4.27;3.87;;;14.30;40.30;;;;;;10435969;28;20231;-75
2021/10/14 12:48:42;;;;;;;5.47;3.87;;;14.30;40.30;;;;;;10436207;28;20237;-75
2021/10/14 12:53:47;;;;;;;4.97;3.93;;;14.30;40.00;;;;;;10435965;28;20217;-75
2021/10/14 12:58:51;;;;;;;6.70;4.27;;;14.40;40.00;;;;;;10439185;28;20371;-74
2021/10/14 13:03:55;;;;;;;5.10;4.17;;;14.40;40.30;;;;;;10436394;28;20229;-75
2021/10/14 13:09:00;;;;;;;5.63;3.57;;;14.50;39.80;;;;;;10437555;28;20518;-74
2021/10/14 13:14:05;;;;;;;3.90;3.50;;;14.50;40.00;;;;;;10437176;28;20729;-74
2021/10/14 13:19:12;;;;;;;4.73;4.30;;;14.50;40.00;;;;;;10431796;28;20301;-78
2021/10/14 13:24:16;;;;;;;4.30;3.90;;;14.60;40.00;;;;;;10436936;28;20744;-74
2021/10/14 13:29:19;;;;;;;5.47;3.90;;;14.60;40.30;;;;;;10433306;28;20217;-74
2021/10/14 13:34:25;;;;;;;3.70;3.40;;;14.70;40.20;;;;;;10432140;28;20233;-74
2021/10/14 13:39:28;;;;;;;5.13;3.60;;;14.70;39.50;;;;;;10436332;28;20995;-74
2021/10/14 13:44:32;;;;;;;3.63;3.30;;;14.80;40.10;;;;;;10431993;28;20238;-75
2021/10/14 13:49:36;;;;;;;4.20;3.47;;;14.90;39.90;;;;;;10432051;28;20608;-74
2021/10/14 13:54:39;;;;;;;3.90;3.30;;;15.00;39.50;;;;;;10430310;28;20232;-74
2021/10/14 13:59:43;;;;;;;4.20;3.80;;;15.00;39.30;;;;;;10431056;28;20248;-74
2021/10/14 14:04:47;;;;;;;5.37;3.20;;;15.00;39.30;;;;;;10431842;28;20229;-74
2021/10/14 14:09:50;;;;;;;4.03;3.63;;;15.00;38.80;;;;;;10434933;28;20236;-79
2021/10/14 14:14:53;;;;;;;3.37;3.07;;;15.10;38.90;;;;;;10433839;28;20571;-79
2021/10/14 14:19:58;;;;;;;5.07;3.87;;;15.10;39.00;;;;;;10427947;28;20241;-83
2021/10/14 14:25:01;;;;;;;4.20;3.50;;;15.10;38.20;;;;;;10429610;28;20231;-75
2021/10/14 14:30:06;;;;;;;4.40;3.30;;;15.10;38.80;;;;;;10433737;28;20555;-75
2021/10/14 14:35:11;;;;;;;4.93;4.07;;;15.10;38.60;;;;;;10430996;28;20244;-74
2021/10/14 14:40:14;;;;;;;4.63;4.23;;;15.10;38.70;;;;;;10434486;28;20221;-74
2021/10/14 14:45:17;;;;;;;4.43;4.03;;;15.20;39.00;;;;;;10430879;28;23318;-74
2021/10/14 14:50:41;;;;;;;4.87;4.00;;;15.20;39.00;;;;;;10432418;28;20571;-74
2021/10/14 14:55:47;;;;;;;6.40;4.87;;;15.20;38.60;;;;;;10422829;28;20279;-75
2021/10/14 15:00:50;;;;;;;4.80;4.33;;;15.20;38.80;;;;;;10434589;28;20248;-74
2021/10/14 15:05:55;;;;;;;5.83;4.17;;;15.20;38.90;;;;;;10429049;28;20235;-74
2021/10/14 15:11:00;;;;;;;4.70;4.10;;;15.20;38.60;;;;;;10432373;28;20340;-75
2021/10/14 15:16:03;;;;;;;4.80;4.30;;;15.20;38.60;;;;;;10430534;28;20729;-75
2021/10/14 15:21:09;;;;;;;4.43;4.03;;;15.20;38.80;;;;;;10427432;28;20228;-74
2021/10/14 15:26:13;;;;;;;4.90;4.33;;;15.20;38.50;;;;;;10431478;28;20701;-74
2021/10/14 15:31:16;;;;;;;5.87;4.40;;;15.20;38.90;;;;;;10440372;28;20232;-74
2021/10/14 15:36:21;;;;;;;5.23;4.73;;;15.20;39.00;;;;;;10441542;28;20237;-74
2021/10/14 15:41:26;;;;;;;4.90;4.40;;;15.20;39.20;;;;;;10440012;28;20274;-74
2021/10/14 15:46:29;;;;;;;4.97;4.13;;;15.30;38.80;;;;;;10440359;28;20243;-74
2021/10/14 15:51:34;;;;;;;6.13;4.93;;;15.30;38.90;;;;;;10433445;28;20232;-74
2021/10/14 15:56:38;;;;;;;5.70;5.20;;;15.30;38.60;;;;;;10442000;28;20220;-74
2021/10/14 16:01:41;;;;;;;5.47;4.97;;;15.30;38.80;;;;;;10443240;28;20229;-74
2021/10/14 16:06:46;;;;;;;4.87;4.27;;;15.30;38.90;;;;;;10440120;28;20233;-74
2021/10/14 16:11:51;;;;;;;7.37;5.87;;;15.30;38.60;;;;;;10441853;28;20217;-74
2021/10/14 16:16:56;;;;;;;5.20;4.60;;;15.30;38.90;;;;;;10440528;28;20278;-73
2021/10/14 16:22:00;;;;;;;8.07;7.27;;;15.20;38.90;;;;;;10440963;28;20225;-73
2021/10/14 16:27:07;;;;;;;7.23;6.53;;;15.20;38.90;;;;;;10440782;28;20676;-74
2021/10/14 16:32:12;;;;;;;7.17;5.80;;;15.20;39.00;;;;;;10437805;28;20224;-74
2021/10/14 16:37:17;;;;;;;6.90;6.20;;;15.20;39.00;;;;;;10436481;28;20298;-74
2021/10/14 16:42:21;;;;;;;6.53;5.93;;;15.20;39.00;;;;;;10438766;28;20319;-74
2021/10/14 16:47:25;;;;;;;5.53;5.03;;;15.10;39.10;;;;;;10436794;28;20236;-73
2021/10/14 16:52:29;;;;;;;6.53;5.83;;;15.10;39.20;;;;;;10440678;28;20232;-73
2021/10/14 16:57:33;;;;;;;7.40;6.70;;;15.10;39.30;;;;;;10436218;28;20221;-73
2021/10/14 17:02:37;;;;;;;6.60;5.70;;;15.10;39.40;;;;;;10439372;28;20760;-74
2021/10/14 17:07:43;;;;;;;5.20;4.70;;;15.10;39.40;;;;;;10440377;28;20267;-74
2021/10/14 17:12:46;;;;;;;4.57;4.17;;;15.10;39.40;;;;;;10438230;28;20222;-74
2021/10/14 17:17:49;;;;;;;4.67;4.27;;;15.00;39.20;;;;;;10438013;28;20252;-74
2021/10/14 17:23:21;;;;;;;5.93;4.47;;;15.00;39.40;;;;;;10433338;28;20233;-74
2021/10/14 17:39:25;;;;;;;5.00;4.30;;;15.00;39.50;;;;;;10300560;28;20227;-74
2021/10/14 17:44:35;;;;;;;5.17;4.47;;;15.00;39.40;;;;;;10401821;28;20233;-73
2021/10/14 17:49:38;;;;;;;5.10;4.60;;;15.00;39.50;;;;;;10430989;28;20221;-77
2021/10/14 17:54:43;;;;;;;5.73;5.23;;;15.00;39.70;;;;;;10432705;28;20239;-73
2021/10/14 17:59:46;;;;;;;5.13;4.50;;;15.00;39.80;;;;;;10429331;28;20233;-73
2021/10/14 18:05:12;;;;;;;4.50;4.10;;;15.00;39.80;;;;;;10429358;28;20729;-73
2021/10/14 18:42:23;;;;;;;6.20;5.60;;;15.00;39.80;;;;;;10428246;28;20669;-73
2021/10/14 18:47:26;;;;;;;6.33;5.30;;;15.00;40.10;;;;;;10415890;28;20233;-73
2021/10/14 18:52:35;;;;;;;7.10;5.40;;;15.00;40.00;;;;;;10420771;28;20235;-78
2021/10/14 18:57:42;;;;;;;7.17;5.73;;;14.90;39.80;;;;;;10429080;28;20253;-79
2021/10/14 19:02:54;;;;;;;6.07;5.47;;;15.00;39.90;;;;;;10428312;28;20351;-79
2021/10/14 19:08:27;;;;;;;6.33;5.73;;;15.00;40.10;;;;;;10433494;28;20232;-78
2021/10/14 19:13:56;;;;;;;5.63;5.13;;;15.00;40.10;;;;;;10429139;28;20241;-79
2021/10/14 19:19:21;;;;;;;5.00;4.57;;;15.00;40.10;;;;;;10421980;28;20225;-79
2021/10/14 20:23:53;;;;;;;5.80;4.70;;;14.90;40.30;;;;;;10310038;28;20329;-76
2021/10/14 20:28:57;;;;;;;4.30;3.90;;;15.00;40.30;;;;;;10313233;28;21038;-78
2021/10/14 20:34:09;;;;;;;7.00;5.50;;;14.90;40.30;;;;;;10317737;28;20219;-78
2021/10/14 20:39:14;;;;;;;5.57;5.07;;;15.00;40.30;;;;;;10358837;28;20317;-77
2021/10/14 20:44:17;;;;;;;6.67;4.97;;;15.00;40.10;;;;;;10357602;28;20222;-76
2021/10/14 20:49:22;;;;;;;5.53;5.03;;;14.90;40.10;;;;;;10361135;28;20230;-76
2021/10/14 20:54:30;;;;;;;6.77;5.67;;;14.90;40.00;;;;;;10356108;28;20240;-76
2021/10/14 21:04:56;;;;;;;5.80;5.20;;;14.70;40.00;;;;;;10351611;28;20230;-76
2021/10/14 21:09:59;;;;;;;6.30;5.50;;;14.60;40.00;;;;;;10347599;28;20974;-76
2021/10/14 21:15:03;;;;;;;5.57;5.07;;;14.50;40.00;;;;;;10352426;28;20226;-76
2021/10/14 21:20:11;;;;;;;6.07;5.47;;;14.50;40.10;;;;;;10351143;28;20218;-76
2021/10/14 21:25:14;;;;;;;7.47;6.70;;;14.50;40.20;;;;;;10355562;28;20245;-76
2021/10/14 21:30:38;;;;;;;6.50;5.80;;;14.50;40.20;;;;;;10361005;28;20821;-77
2021/10/14 21:35:45;;;;;;;6.33;5.73;;;14.50;40.20;;;;;;10361243;28;20253;-75
2021/10/14 21:40:50;;;;;;;5.77;5.13;;;14.50;40.60;;;;;;10365504;28;20233;-75
2021/10/14 21:45:53;;;;;;;6.93;5.33;;;14.50;40.50;;;;;;10367946;28;20732;-75
2021/10/14 21:50:58;;;;;;;5.80;5.20;;;14.50;40.40;;;;;;10375490;28;20230;-76
2021/10/14 21:56:02;;;;;;;5.57;5.07;;;14.50;40.70;;;;;;10367136;28;20231;-75
2021/10/14 22:01:05;;;;;;;4.87;4.37;;;14.50;40.60;;;;;;10365440;28;20226;-75
2021/10/14 22:06:09;;;;;;;4.30;3.90;;;14.50;41.50;;;;;;10367053;28;20222;-75
2021/10/14 22:11:13;;;;;;;6.40;5.07;;;14.50;40.90;;;;;;10359669;28;20221;-75
2021/10/14 22:16:16;;;;;;;5.30;4.80;;;14.50;40.80;;;;;;10368709;28;20251;-75
2021/10/14 22:21:20;;;;;;;5.10;4.60;;;14.50;40.90;;;;;;10362261;28;20237;-75
2021/10/14 22:26:24;;;;;;;5.17;4.57;;;14.50;41.00;;;;;;10371118;28;20230;-75
2021/10/14 22:31:28;;;;;;;5.17;4.67;;;14.50;40.80;;;;;;10366590;28;20297;-75
2021/10/14 22:36:33;;;;;;;4.60;4.20;;;14.50;40.90;;;;;;10359900;28;20253;-76
2021/10/14 22:41:36;;;;;;;5.40;4.90;;;14.50;40.90;;;;;;10368259;28;20222;-75
2021/10/14 22:46:40;;;;;;;5.20;4.70;;;14.50;40.90;;;;;;10365799;28;20233;-75
2021/10/14 22:51:45;;;;;;;5.57;4.93;;;14.50;40.90;;;;;;10367743;28;20229;-75
2021/10/14 22:56:48;;;;;;;5.30;4.77;;;14.50;41.10;;;;;;10361767;28;20229;-75
2021/10/14 23:01:51;;;;;;;5.30;4.80;;;14.50;40.90;;;;;;10363609;28;20229;-75
2021/10/14 23:06:56;;;;;;;6.23;5.10;;;14.50;40.90;;;;;;10362397;28;20230;-75
2021/10/14 23:11:59;;;;;;;5.57;5.07;;;14.50;41.10;;;;;;10362142;28;20280;-75
2021/10/14 23:17:03;;;;;;;6.13;4.70;;;14.50;41.00;;;;;;10366753;28;20230;-75
2021/10/14 23:22:08;;;;;;;5.70;5.10;;;14.40;40.90;;;;;;10369414;28;20317;-76
2021/10/14 23:27:11;;;;;;;5.00;4.60;;;14.40;41.10;;;;;;10366410;28;20230;-76
2021/10/14 23:32:15;;;;;;;5.20;3.93;;;14.40;41.00;;;;;;10360361;28;20222;-75
2021/10/14 23:37:19;;;;;;;4.93;4.53;;;14.40;41.20;;;;;;10368118;28;20226;-75
2021/10/14 23:42:23;;;;;;;5.23;4.73;;;14.30;41.30;;;;;;10367567;28;20245;-75
2021/10/14 23:47:26;;;;;;;5.53;5.07;;;14.20;41.10;;;;;;10365899;28;20234;-75
2021/10/14 23:52:30;;;;;;;5.40;4.90;;;14.20;41.10;;;;;;10372295;28;20601;-75
2021/10/14 23:57:34;;;;;;;5.73;5.23;;;14.20;41.30;;;;;;10370560;28;20769;-76
